sensor_id;sensor_type;location;lat;lon;timestamp;P1;durP1;ratioP1;P2;durP2;ratioP2
817;SDS011;391;51.052;6.954;2023-08-24T00:00:52;9.30;;;8.43;;
817;SDS011;391;51.052;6.954;2023-08-24T00:02:57;9.43;;;8.10;;
817;SDS011;391;51.052;6.954;2023-08-24T00:05:00;9.53;;;8.00;;
817;SDS011;391;51.052;6.954;2023-08-24T00:07:04;8.23;;;7.53;;
817;SDS011;391;51.052;6.954;2023-08-24T00:09:08;8.73;;;7.93;;
817;SDS011;391;51.052;6.954;2023-08-24T00:11:11;9.70;;;8.47;;
817;SDS011;391;51.052;6.954;2023-08-24T00:13:17;9.23;;;8.37;;
817;SDS011;391;51.052;6.954;2023-08-24T00:15:19;8.63;;;7.80;;
817;SDS011;391;51.052;6.954;2023-08-24T00:17:23;8.50;;;7.57;;
817;SDS011;391;51.052;6.954;2023-08-24T00:19:28;9.50;;;8.50;;
817;SDS011;391;51.052;6.954;2023-08-24T00:21:31;8.73;;;7.80;;
817;SDS011;391;51.052;6.954;2023-08-24T00:23:35;9.53;;;8.63;;
817;SDS011;391;51.052;6.954;2023-08-24T00:25:37;9.10;;;8.20;;
817;SDS011;391;51.052;6.954;2023-08-24T00:27:42;8.90;;;8.10;;
817;SDS011;391;51.052;6.954;2023-08-24T00:29:46;10.87;;;8.30;;
817;SDS011;391;51.052;6.954;2023-08-24T00:31:51;8.63;;;7.30;;
817;SDS011;391;51.052;6.954;2023-08-24T00:33:54;7.50;;;6.80;;
817;SDS011;391;51.052;6.954;2023-08-24T00:36:01;8.90;;;6.70;;
817;SDS011;391;51.052;6.954;2023-08-24T00:38:05;7.77;;;6.57;;
817;SDS011;391;51.052;6.954;2023-08-24T00:40:09;8.60;;;6.93;;
817;SDS011;391;51.052;6.954;2023-08-24T00:42:12;9.43;;;7.13;;
817;SDS011;391;51.052;6.954;2023-08-24T00:44:17;8.83;;;6.63;;
817;SDS011;391;51.052;6.954;2023-08-24T00:46:21;10.87;;;9.77;;
817;SDS011;391;51.052;6.954;2023-08-24T00:48:25;22.37;;;19.73;;
817;SDS011;391;51.052;6.954;2023-08-24T00:50:30;7.00;;;6.20;;
817;SDS011;391;51.052;6.954;2023-08-24T00:52:35;9.10;;;6.50;;
817;SDS011;391;51.052;6.954;2023-08-24T00:54:41;8.90;;;6.20;;
817;SDS011;391;51.052;6.954;2023-08-24T00:56:44;6.40;;;5.90;;
817;SDS011;391;51.052;6.954;2023-08-24T00:58:48;6.03;;;5.30;;
817;SDS011;391;51.052;6.954;2023-08-24T01:00:52;6.90;;;6.20;;
817;SDS011;391;51.052;6.954;2023-08-24T01:02:56;9.77;;;5.60;;
817;SDS011;391;51.052;6.954;2023-08-24T01:04:59;6.23;;;5.63;;
817;SDS011;391;51.052;6.954;2023-08-24T01:07:03;7.20;;;5.57;;
817;SDS011;391;51.052;6.954;2023-08-24T01:09:10;5.53;;;5.00;;
817;SDS011;391;51.052;6.954;2023-08-24T01:11:15;7.43;;;5.70;;
817;SDS011;391;51.052;6.954;2023-08-24T01:13:30;6.80;;;6.10;;
817;SDS011;391;51.052;6.954;2023-08-24T01:15:42;7.23;;;5.77;;
817;SDS011;391;51.052;6.954;2023-08-24T01:17:51;6.77;;;5.80;;
817;SDS011;391;51.052;6.954;2023-08-24T01:19:55;6.47;;;5.50;;
817;SDS011;391;51.052;6.954;2023-08-24T01:22:01;6.33;;;5.73;;
817;SDS011;391;51.052;6.954;2023-08-24T01:24:10;6.67;;;6.00;;
817;SDS011;391;51.052;6.954;2023-08-24T01:26:18;5.43;;;4.93;;
817;SDS011;391;51.052;6.954;2023-08-24T01:28:23;6.60;;;5.27;;
817;SDS011;391;51.052;6.954;2023-08-24T01:30:27;8.57;;;5.70;;
817;SDS011;391;51.052;6.954;2023-08-24T01:32:30;5.50;;;5.00;;
817;SDS011;391;51.052;6.954;2023-08-24T01:34:36;5.40;;;5.00;;
817;SDS011;391;51.052;6.954;2023-08-24T01:36:40;5.00;;;4.60;;
817;SDS011;391;51.052;6.954;2023-08-24T01:38:43;5.90;;;5.40;;
817;SDS011;391;51.052;6.954;2023-08-24T01:40:51;8.23;;;5.63;;
817;SDS011;391;51.052;6.954;2023-08-24T01:43:04;5.10;;;4.60;;
817;SDS011;391;51.052;6.954;2023-08-24T01:45:10;6.50;;;5.87;;
817;SDS011;391;51.052;6.954;2023-08-24T01:47:16;7.73;;;6.90;;
817;SDS011;391;51.052;6.954;2023-08-24T01:49:22;6.93;;;5.80;;
817;SDS011;391;51.052;6.954;2023-08-24T01:51:27;5.87;;;5.20;;
817;SDS011;391;51.052;6.954;2023-08-24T01:53:31;6.47;;;5.07;;
817;SDS011;391;51.052;6.954;2023-08-24T01:55:36;6.93;;;5.60;;
817;SDS011;391;51.052;6.954;2023-08-24T01:57:41;6.17;;;5.37;;
817;SDS011;391;51.052;6.954;2023-08-24T01:59:45;5.53;;;5.10;;
817;SDS011;391;51.052;6.954;2023-08-24T02:01:49;7.03;;;5.40;;
817;SDS011;391;51.052;6.954;2023-08-24T02:03:52;8.73;;;5.60;;
817;SDS011;391;51.052;6.954;2023-08-24T02:05:56;6.70;;;4.77;;
817;SDS011;391;51.052;6.954;2023-08-24T02:08:00;5.63;;;5.13;;
817;SDS011;391;51.052;6.954;2023-08-24T02:10:02;7.57;;;5.40;;
817;SDS011;391;51.052;6.954;2023-08-24T02:12:06;5.97;;;5.20;;
817;SDS011;391;51.052;6.954;2023-08-24T02:14:10;5.83;;;5.33;;
817;SDS011;391;51.052;6.954;2023-08-24T02:16:14;6.90;;;5.30;;
817;SDS011;391;51.052;6.954;2023-08-24T02:18:17;7.67;;;5.47;;
817;SDS011;391;51.052;6.954;2023-08-24T02:20:19;7.10;;;5.47;;
817;SDS011;391;51.052;6.954;2023-08-24T02:22:23;5.87;;;5.17;;
817;SDS011;391;51.052;6.954;2023-08-24T02:24:27;5.70;;;5.20;;
817;SDS011;391;51.052;6.954;2023-08-24T02:26:30;5.43;;;4.97;;
817;SDS011;391;51.052;6.954;2023-08-24T02:28:35;6.67;;;5.67;;
817;SDS011;391;51.052;6.954;2023-08-24T02:30:40;5.43;;;5.03;;
817;SDS011;391;51.052;6.954;2023-08-24T02:32:45;6.10;;;5.30;;
817;SDS011;391;51.052;6.954;2023-08-24T02:34:50;5.17;;;4.77;;
817;SDS011;391;51.052;6.954;2023-08-24T02:36:53;5.73;;;5.20;;
817;SDS011;391;51.052;6.954;2023-08-24T02:38:57;5.97;;;5.40;;
817;SDS011;391;51.052;6.954;2023-08-24T02:41:01;6.30;;;5.73;;
817;SDS011;391;51.052;6.954;2023-08-24T02:43:05;5.50;;;5.10;;
817;SDS011;391;51.052;6.954;2023-08-24T02:45:09;6.07;;;4.47;;
817;SDS011;391;51.052;6.954;2023-08-24T02:47:13;5.23;;;4.83;;
817;SDS011;391;51.052;6.954;2023-08-24T02:49:18;5.27;;;4.63;;
817;SDS011;391;51.052;6.954;2023-08-24T02:51:22;5.23;;;4.73;;
817;SDS011;391;51.052;6.954;2023-08-24T02:53:24;8.23;;;5.67;;
817;SDS011;391;51.052;6.954;2023-08-24T02:55:31;5.50;;;5.10;;
817;SDS011;391;51.052;6.954;2023-08-24T02:57:35;5.80;;;5.30;;
817;SDS011;391;51.052;6.954;2023-08-24T02:59:38;6.10;;;4.77;;
817;SDS011;391;51.052;6.954;2023-08-24T03:01:42;5.97;;;5.40;;
817;SDS011;391;51.052;6.954;2023-08-24T03:03:45;7.10;;;5.60;;
817;SDS011;391;51.052;6.954;2023-08-24T03:05:54;7.20;;;6.00;;
817;SDS011;391;51.052;6.954;2023-08-24T03:07:57;8.33;;;7.10;;
817;SDS011;391;51.052;6.954;2023-08-24T03:10:00;13.47;;;11.97;;
817;SDS011;391;51.052;6.954;2023-08-24T03:12:07;12.37;;;9.47;;
817;SDS011;391;51.052;6.954;2023-08-24T03:14:12;6.13;;;5.63;;
817;SDS011;391;51.052;6.954;2023-08-24T03:16:15;5.47;;;4.97;;
817;SDS011;391;51.052;6.954;2023-08-24T03:18:19;6.87;;;6.20;;
817;SDS011;391;51.052;6.954;2023-08-24T03:20:22;6.10;;;5.50;;
817;SDS011;391;51.052;6.954;2023-08-24T03:22:27;5.47;;;5.00;;
817;SDS011;391;51.052;6.954;2023-08-24T03:24:30;6.30;;;4.70;;
817;SDS011;391;51.052;6.954;2023-08-24T03:26:33;5.77;;;4.83;;
817;SDS011;391;51.052;6.954;2023-08-24T03:28:37;5.50;;;5.00;;
817;SDS011;391;51.052;6.954;2023-08-24T03:30:45;7.73;;;6.90;;
817;SDS011;391;51.052;6.954;2023-08-24T03:32:51;10.33;;;9.23;;
817;SDS011;391;51.052;6.954;2023-08-24T03:34:57;6.63;;;6.03;;
817;SDS011;391;51.052;6.954;2023-08-24T03:37:02;5.87;;;5.37;;
817;SDS011;391;51.052;6.954;2023-08-24T03:39:07;9.87;;;8.83;;
817;SDS011;391;51.052;6.954;2023-08-24T03:41:11;6.87;;;6.37;;
817;SDS011;391;51.052;6.954;2023-08-24T03:43:14;6.20;;;5.70;;
817;SDS011;391;51.052;6.954;2023-08-24T03:45:17;7.20;;;5.80;;
817;SDS011;391;51.052;6.954;2023-08-24T03:47:20;8.33;;;6.27;;
817;SDS011;391;51.052;6.954;2023-08-24T03:49:24;7.23;;;6.57;;
817;SDS011;391;51.052;6.954;2023-08-24T03:51:29;6.73;;;5.70;;
817;SDS011;391;51.052;6.954;2023-08-24T03:53:33;8.30;;;6.37;;
817;SDS011;391;51.052;6.954;2023-08-24T03:55:38;6.23;;;5.63;;
817;SDS011;391;51.052;6.954;2023-08-24T03:57:42;6.30;;;5.70;;
817;SDS011;391;51.052;6.954;2023-08-24T03:59:45;6.97;;;5.63;;
817;SDS011;391;51.052;6.954;2023-08-24T04:01:49;5.70;;;5.20;;
817;SDS011;391;51.052;6.954;2023-08-24T04:03:55;7.40;;;6.70;;
817;SDS011;391;51.052;6.954;2023-08-24T04:06:00;8.77;;;6.17;;
817;SDS011;391;51.052;6.954;2023-08-24T04:08:04;6.57;;;5.77;;
817;SDS011;391;51.052;6.954;2023-08-24T04:10:07;5.67;;;5.27;;
817;SDS011;391;51.052;6.954;2023-08-24T04:12:13;6.27;;;5.70;;
817;SDS011;391;51.052;6.954;2023-08-24T04:14:18;7.73;;;6.10;;
817;SDS011;391;51.052;6.954;2023-08-24T04:16:21;8.73;;;7.93;;
817;SDS011;391;51.052;6.954;2023-08-24T04:18:26;10.03;;;7.03;;
817;SDS011;391;51.052;6.954;2023-08-24T04:20:31;7.23;;;6.70;;
817;SDS011;391;51.052;6.954;2023-08-24T04:22:34;7.57;;;6.87;;
817;SDS011;391;51.052;6.954;2023-08-24T04:24:37;6.40;;;5.80;;
817;SDS011;391;51.052;6.954;2023-08-24T04:26:40;6.97;;;6.43;;
817;SDS011;391;51.052;6.954;2023-08-24T04:28:45;7.90;;;7.20;;
817;SDS011;391;51.052;6.954;2023-08-24T04:30:49;13.43;;;10.13;;
817;SDS011;391;51.052;6.954;2023-08-24T04:32:53;7.73;;;6.63;;
817;SDS011;391;51.052;6.954;2023-08-24T04:34:57;17.17;;;15.10;;
817;SDS011;391;51.052;6.954;2023-08-24T04:37:01;9.77;;;7.33;;
817;SDS011;391;51.052;6.954;2023-08-24T04:39:05;6.73;;;5.37;;
817;SDS011;391;51.052;6.954;2023-08-24T04:41:08;7.30;;;6.17;;
817;SDS011;391;51.052;6.954;2023-08-24T04:43:14;9.80;;;6.70;;
817;SDS011;391;51.052;6.954;2023-08-24T04:45:19;10.83;;;6.90;;
817;SDS011;391;51.052;6.954;2023-08-24T04:47:22;7.03;;;6.37;;
817;SDS011;391;51.052;6.954;2023-08-24T04:49:26;7.50;;;6.07;;
817;SDS011;391;51.052;6.954;2023-08-24T04:51:30;13.27;;;7.07;;
817;SDS011;391;51.052;6.954;2023-08-24T04:53:32;6.50;;;6.00;;
817;SDS011;391;51.052;6.954;2023-08-24T04:55:36;7.77;;;6.83;;
817;SDS011;391;51.052;6.954;2023-08-24T04:57:39;7.40;;;6.80;;
817;SDS011;391;51.052;6.954;2023-08-24T04:59:44;7.30;;;6.50;;
817;SDS011;391;51.052;6.954;2023-08-24T05:01:48;6.70;;;6.10;;
817;SDS011;391;51.052;6.954;2023-08-24T05:03:52;7.27;;;6.37;;
817;SDS011;391;51.052;6.954;2023-08-24T05:05:55;6.27;;;5.77;;
817;SDS011;391;51.052;6.954;2023-08-24T05:07:59;6.67;;;6.17;;
817;SDS011;391;51.052;6.954;2023-08-24T05:10:03;7.87;;;6.83;;
817;SDS011;391;51.052;6.954;2023-08-24T05:12:08;7.00;;;6.30;;
817;SDS011;391;51.052;6.954;2023-08-24T05:14:11;6.93;;;6.20;;
817;SDS011;391;51.052;6.954;2023-08-24T05:16:16;7.87;;;7.13;;
817;SDS011;391;51.052;6.954;2023-08-24T05:18:21;7.60;;;6.90;;
817;SDS011;391;51.052;6.954;2023-08-24T05:20:24;7.13;;;6.53;;
817;SDS011;391;51.052;6.954;2023-08-24T05:22:28;8.93;;;6.60;;
817;SDS011;391;51.052;6.954;2023-08-24T05:24:32;10.90;;;6.57;;
817;SDS011;391;51.052;6.954;2023-08-24T05:26:35;6.70;;;6.07;;
817;SDS011;391;51.052;6.954;2023-08-24T05:28:39;9.33;;;7.03;;
817;SDS011;391;51.052;6.954;2023-08-24T05:30:42;8.07;;;7.33;;
817;SDS011;391;51.052;6.954;2023-08-24T05:32:46;10.33;;;8.23;;
817;SDS011;391;51.052;6.954;2023-08-24T05:34:51;8.07;;;7.27;;
817;SDS011;391;51.052;6.954;2023-08-24T05:36:55;6.97;;;6.37;;
817;SDS011;391;51.052;6.954;2023-08-24T05:38:58;7.53;;;6.63;;
817;SDS011;391;51.052;6.954;2023-08-24T05:41:07;7.57;;;6.83;;
817;SDS011;391;51.052;6.954;2023-08-24T05:43:11;9.50;;;5.93;;
817;SDS011;391;51.052;6.954;2023-08-24T05:45:14;7.23;;;6.60;;
817;SDS011;391;51.052;6.954;2023-08-24T05:47:17;7.33;;;6.73;;
817;SDS011;391;51.052;6.954;2023-08-24T05:49:21;8.00;;;7.20;;
817;SDS011;391;51.052;6.954;2023-08-24T05:51:25;10.17;;;6.80;;
817;SDS011;391;51.052;6.954;2023-08-24T05:53:28;11.03;;;10.03;;
817;SDS011;391;51.052;6.954;2023-08-24T05:55:32;12.67;;;11.43;;
817;SDS011;391;51.052;6.954;2023-08-24T05:57:35;17.73;;;15.83;;
817;SDS011;391;51.052;6.954;2023-08-24T05:59:38;15.87;;;14.47;;
817;SDS011;391;51.052;6.954;2023-08-24T06:01:42;10.30;;;9.00;;
817;SDS011;391;51.052;6.954;2023-08-24T06:03:45;9.40;;;7.60;;
817;SDS011;391;51.052;6.954;2023-08-24T06:05:49;6.73;;;6.23;;
817;SDS011;391;51.052;6.954;2023-08-24T06:07:54;7.40;;;6.50;;
817;SDS011;391;51.052;6.954;2023-08-24T06:09:57;6.87;;;6.27;;
817;SDS011;391;51.052;6.954;2023-08-24T06:12:01;7.50;;;6.90;;
817;SDS011;391;51.052;6.954;2023-08-24T06:14:04;7.97;;;6.30;;
817;SDS011;391;51.052;6.954;2023-08-24T06:16:07;6.83;;;6.33;;
817;SDS011;391;51.052;6.954;2023-08-24T06:18:10;7.03;;;6.43;;
817;SDS011;391;51.052;6.954;2023-08-24T06:20:13;9.20;;;7.03;;
817;SDS011;391;51.052;6.954;2023-08-24T06:22:17;7.20;;;6.63;;
817;SDS011;391;51.052;6.954;2023-08-24T06:24:22;7.07;;;6.30;;
817;SDS011;391;51.052;6.954;2023-08-24T06:26:25;8.67;;;6.53;;
817;SDS011;391;51.052;6.954;2023-08-24T06:28:28;7.83;;;7.03;;
817;SDS011;391;51.052;6.954;2023-08-24T06:30:31;6.90;;;6.20;;
817;SDS011;391;51.052;6.954;2023-08-24T06:32:38;9.33;;;8.43;;
817;SDS011;391;51.052;6.954;2023-08-24T06:34:42;8.87;;;8.00;;
817;SDS011;391;51.052;6.954;2023-08-24T06:36:49;17.50;;;7.93;;
817;SDS011;391;51.052;6.954;2023-08-24T06:38:54;9.53;;;8.73;;
817;SDS011;391;51.052;6.954;2023-08-24T06:40:59;8.30;;;7.60;;
817;SDS011;391;51.052;6.954;2023-08-24T06:43:03;8.03;;;7.07;;
817;SDS011;391;51.052;6.954;2023-08-24T06:45:07;9.07;;;8.30;;
817;SDS011;391;51.052;6.954;2023-08-24T06:47:13;8.40;;;7.70;;
817;SDS011;391;51.052;6.954;2023-08-24T06:49:16;9.83;;;7.50;;
817;SDS011;391;51.052;6.954;2023-08-24T06:51:21;10.63;;;7.97;;
817;SDS011;391;51.052;6.954;2023-08-24T06:53:24;6.70;;;6.20;;
817;SDS011;391;51.052;6.954;2023-08-24T06:55:28;10.00;;;7.50;;
817;SDS011;391;51.052;6.954;2023-08-24T06:57:32;7.33;;;6.73;;
817;SDS011;391;51.052;6.954;2023-08-24T06:59:35;8.33;;;7.63;;
817;SDS011;391;51.052;6.954;2023-08-24T07:01:38;6.80;;;6.27;;
817;SDS011;391;51.052;6.954;2023-08-24T07:03:43;6.77;;;5.90;;
817;SDS011;391;51.052;6.954;2023-08-24T07:05:46;7.70;;;6.67;;
817;SDS011;391;51.052;6.954;2023-08-24T07:07:50;7.83;;;6.20;;
817;SDS011;391;51.052;6.954;2023-08-24T07:09:54;11.43;;;6.60;;
817;SDS011;391;51.052;6.954;2023-08-24T07:11:58;7.60;;;6.90;;
817;SDS011;391;51.052;6.954;2023-08-24T07:14:02;7.80;;;7.10;;
817;SDS011;391;51.052;6.954;2023-08-24T07:16:06;10.93;;;10.03;;
817;SDS011;391;51.052;6.954;2023-08-24T07:18:10;10.57;;;9.57;;
817;SDS011;391;51.052;6.954;2023-08-24T07:20:14;9.33;;;8.30;;
817;SDS011;391;51.052;6.954;2023-08-24T07:22:18;11.70;;;6.90;;
817;SDS011;391;51.052;6.954;2023-08-24T07:24:21;6.80;;;5.70;;
817;SDS011;391;51.052;6.954;2023-08-24T07:26:45;8.80;;;7.20;;
817;SDS011;391;51.052;6.954;2023-08-24T07:28:48;7.73;;;7.13;;
817;SDS011;391;51.052;6.954;2023-08-24T07:30:53;8.83;;;7.20;;
817;SDS011;391;51.052;6.954;2023-08-24T07:32:58;6.07;;;5.47;;
817;SDS011;391;51.052;6.954;2023-08-24T07:35:01;7.40;;;5.93;;
817;SDS011;391;51.052;6.954;2023-08-24T07:37:06;7.27;;;6.70;;
817;SDS011;391;51.052;6.954;2023-08-24T07:39:11;6.33;;;5.73;;
817;SDS011;391;51.052;6.954;2023-08-24T07:41:16;5.23;;;4.80;;
817;SDS011;391;51.052;6.954;2023-08-24T07:43:20;6.67;;;5.43;;
817;SDS011;391;51.052;6.954;2023-08-24T07:45:23;5.50;;;4.53;;
817;SDS011;391;51.052;6.954;2023-08-24T07:47:28;11.40;;;5.13;;
817;SDS011;391;51.052;6.954;2023-08-24T07:49:32;5.93;;;4.60;;
817;SDS011;391;51.052;6.954;2023-08-24T07:51:36;5.33;;;4.60;;
817;SDS011;391;51.052;6.954;2023-08-24T07:53:39;4.90;;;4.03;;
817;SDS011;391;51.052;6.954;2023-08-24T07:55:43;5.23;;;4.80;;
817;SDS011;391;51.052;6.954;2023-08-24T07:57:46;4.33;;;3.93;;
817;SDS011;391;51.052;6.954;2023-08-24T07:59:51;7.40;;;4.73;;
817;SDS011;391;51.052;6.954;2023-08-24T08:01:54;6.70;;;4.00;;
817;SDS011;391;51.052;6.954;2023-08-24T08:03:59;4.43;;;3.73;;
817;SDS011;391;51.052;6.954;2023-08-24T08:06:03;6.17;;;4.33;;
817;SDS011;391;51.052;6.954;2023-08-24T08:08:06;4.50;;;4.10;;
817;SDS011;391;51.052;6.954;2023-08-24T08:10:10;6.10;;;4.80;;
817;SDS011;391;51.052;6.954;2023-08-24T08:12:14;7.00;;;4.47;;
817;SDS011;391;51.052;6.954;2023-08-24T08:14:17;5.33;;;4.53;;
817;SDS011;391;51.052;6.954;2023-08-24T08:16:22;4.37;;;3.97;;
817;SDS011;391;51.052;6.954;2023-08-24T08:18:25;5.33;;;4.70;;
817;SDS011;391;51.052;6.954;2023-08-24T08:20:30;5.67;;;4.40;;
817;SDS011;391;51.052;6.954;2023-08-24T08:22:35;8.73;;;5.07;;
817;SDS011;391;51.052;6.954;2023-08-24T08:24:40;5.83;;;4.97;;
817;SDS011;391;51.052;6.954;2023-08-24T08:26:44;6.00;;;5.07;;
817;SDS011;391;51.052;6.954;2023-08-24T08:28:46;8.40;;;4.93;;
817;SDS011;391;51.052;6.954;2023-08-24T08:30:50;4.83;;;4.43;;
817;SDS011;391;51.052;6.954;2023-08-24T08:32:54;6.50;;;4.20;;
817;SDS011;391;51.052;6.954;2023-08-24T08:34:57;5.03;;;4.47;;
817;SDS011;391;51.052;6.954;2023-08-24T08:37:03;8.83;;;4.90;;
817;SDS011;391;51.052;6.954;2023-08-24T08:39:07;5.50;;;5.10;;
817;SDS011;391;51.052;6.954;2023-08-24T08:41:11;5.60;;;5.00;;
817;SDS011;391;51.052;6.954;2023-08-24T08:43:15;5.90;;;4.80;;
817;SDS011;391;51.052;6.954;2023-08-24T08:45:18;6.93;;;4.80;;
817;SDS011;391;51.052;6.954;2023-08-24T08:47:28;8.60;;;4.97;;
817;SDS011;391;51.052;6.954;2023-08-24T08:49:31;4.50;;;4.03;;
817;SDS011;391;51.052;6.954;2023-08-24T08:51:37;6.60;;;4.73;;
817;SDS011;391;51.052;6.954;2023-08-24T08:53:42;5.07;;;4.60;;
817;SDS011;391;51.052;6.954;2023-08-24T08:55:46;5.57;;;4.33;;
817;SDS011;391;51.052;6.954;2023-08-24T08:57:51;3.70;;;3.40;;
817;SDS011;391;51.052;6.954;2023-08-24T08:59:56;3.93;;;3.53;;
817;SDS011;391;51.052;6.954;2023-08-24T09:02:00;4.37;;;3.60;;
817;SDS011;391;51.052;6.954;2023-08-24T09:04:04;5.07;;;4.57;;
817;SDS011;391;51.052;6.954;2023-08-24T09:06:09;4.80;;;3.67;;
817;SDS011;391;51.052;6.954;2023-08-24T09:08:12;4.03;;;3.70;;
817;SDS011;391;51.052;6.954;2023-08-24T09:10:17;4.90;;;4.50;;
817;SDS011;391;51.052;6.954;2023-08-24T09:12:21;6.10;;;4.80;;
817;SDS011;391;51.052;6.954;2023-08-24T09:14:24;6.60;;;4.80;;
817;SDS011;391;51.052;6.954;2023-08-24T09:16:29;6.17;;;4.37;;
817;SDS011;391;51.052;6.954;2023-08-24T09:18:34;8.37;;;5.40;;
817;SDS011;391;51.052;6.954;2023-08-24T09:20:38;4.23;;;3.83;;
817;SDS011;391;51.052;6.954;2023-08-24T09:22:42;7.83;;;4.63;;
817;SDS011;391;51.052;6.954;2023-08-24T09:24:48;4.80;;;4.40;;
817;SDS011;391;51.052;6.954;2023-08-24T09:26:54;4.53;;;3.40;;
817;SDS011;391;51.052;6.954;2023-08-24T09:28:58;4.93;;;4.33;;
817;SDS011;391;51.052;6.954;2023-08-24T09:31:01;5.00;;;4.53;;
817;SDS011;391;51.052;6.954;2023-08-24T09:33:09;6.73;;;3.73;;
817;SDS011;391;51.052;6.954;2023-08-24T09:35:13;4.33;;;3.93;;
817;SDS011;391;51.052;6.954;2023-08-24T09:37:18;5.57;;;3.90;;
817;SDS011;391;51.052;6.954;2023-08-24T09:39:22;5.77;;;4.40;;
817;SDS011;391;51.052;6.954;2023-08-24T09:41:31;5.00;;;4.10;;
817;SDS011;391;51.052;6.954;2023-08-24T09:43:41;7.17;;;5.30;;
817;SDS011;391;51.052;6.954;2023-08-24T09:45:48;9.30;;;5.37;;
817;SDS011;391;51.052;6.954;2023-08-24T09:47:52;5.37;;;4.30;;
817;SDS011;391;51.052;6.954;2023-08-24T09:49:57;5.57;;;4.30;;
817;SDS011;391;51.052;6.954;2023-08-24T09:52:01;6.73;;;4.40;;
817;SDS011;391;51.052;6.954;2023-08-24T09:54:10;6.50;;;5.40;;
817;SDS011;391;51.052;6.954;2023-08-24T09:56:15;5.50;;;5.00;;
817;SDS011;391;51.052;6.954;2023-08-24T09:58:19;5.87;;;5.37;;
817;SDS011;391;51.052;6.954;2023-08-24T10:00:24;5.27;;;4.67;;
817;SDS011;391;51.052;6.954;2023-08-24T10:02:29;4.97;;;4.47;;
817;SDS011;391;51.052;6.954;2023-08-24T10:04:38;4.07;;;3.47;;
817;SDS011;391;51.052;6.954;2023-08-24T10:06:44;4.30;;;3.93;;
817;SDS011;391;51.052;6.954;2023-08-24T10:08:52;4.37;;;3.97;;
817;SDS011;391;51.052;6.954;2023-08-24T10:11:01;4.20;;;3.47;;
817;SDS011;391;51.052;6.954;2023-08-24T10:13:06;4.50;;;4.07;;
817;SDS011;391;51.052;6.954;2023-08-24T10:15:14;4.27;;;3.87;;
817;SDS011;391;51.052;6.954;2023-08-24T10:17:19;3.73;;;3.43;;
817;SDS011;391;51.052;6.954;2023-08-24T10:19:25;5.33;;;4.03;;
817;SDS011;391;51.052;6.954;2023-08-24T10:21:30;6.27;;;3.90;;
817;SDS011;391;51.052;6.954;2023-08-24T10:23:33;4.17;;;3.83;;
817;SDS011;391;51.052;6.954;2023-08-24T10:25:37;4.03;;;3.73;;
817;SDS011;391;51.052;6.954;2023-08-24T10:27:50;4.33;;;3.93;;
817;SDS011;391;51.052;6.954;2023-08-24T10:29:56;4.50;;;4.10;;
817;SDS011;391;51.052;6.954;2023-08-24T10:32:01;4.50;;;4.10;;
817;SDS011;391;51.052;6.954;2023-08-24T10:34:07;5.93;;;5.43;;
817;SDS011;391;51.052;6.954;2023-08-24T10:36:12;8.23;;;4.60;;
817;SDS011;391;51.052;6.954;2023-08-24T10:38:23;6.90;;;5.60;;
817;SDS011;391;51.052;6.954;2023-08-24T10:40:33;6.97;;;4.37;;
817;SDS011;391;51.052;6.954;2023-08-24T10:42:43;8.90;;;5.30;;
817;SDS011;391;51.052;6.954;2023-08-24T10:44:48;7.23;;;5.07;;
817;SDS011;391;51.052;6.954;2023-08-24T10:49:29;4.63;;;4.23;;
817;SDS011;391;51.052;6.954;2023-08-24T10:51:38;4.87;;;3.70;;
817;SDS011;391;51.052;6.954;2023-08-24T10:53:47;4.70;;;4.07;;
817;SDS011;391;51.052;6.954;2023-08-24T10:56:01;4.80;;;4.40;;
817;SDS011;391;51.052;6.954;2023-08-24T10:58:13;5.77;;;4.17;;
817;SDS011;391;51.052;6.954;2023-08-24T11:00:20;5.93;;;4.33;;
817;SDS011;391;51.052;6.954;2023-08-24T11:02:25;4.93;;;4.33;;
817;SDS011;391;51.052;6.954;2023-08-24T11:04:29;5.33;;;4.20;;
817;SDS011;391;51.052;6.954;2023-08-24T11:06:33;5.03;;;4.50;;
817;SDS011;391;51.052;6.954;2023-08-24T11:08:46;3.73;;;3.43;;
817;SDS011;391;51.052;6.954;2023-08-24T11:10:51;5.33;;;4.00;;
817;SDS011;391;51.052;6.954;2023-08-24T11:13:12;4.00;;;3.67;;
817;SDS011;391;51.052;6.954;2023-08-24T11:15:28;3.70;;;3.40;;
817;SDS011;391;51.052;6.954;2023-08-24T11:17:32;5.43;;;3.87;;
817;SDS011;391;51.052;6.954;2023-08-24T11:19:37;4.63;;;4.03;;
817;SDS011;391;51.052;6.954;2023-08-24T11:21:41;4.53;;;3.93;;
817;SDS011;391;51.052;6.954;2023-08-24T11:23:45;4.30;;;3.70;;
817;SDS011;391;51.052;6.954;2023-08-24T11:25:49;4.07;;;3.50;;
817;SDS011;391;51.052;6.954;2023-08-24T11:27:57;7.00;;;3.60;;
817;SDS011;391;51.052;6.954;2023-08-24T11:30:02;4.50;;;3.40;;
817;SDS011;391;51.052;6.954;2023-08-24T11:32:07;5.23;;;4.03;;
817;SDS011;391;51.052;6.954;2023-08-24T11:34:14;6.00;;;3.77;;
817;SDS011;391;51.052;6.954;2023-08-24T11:36:19;4.57;;;3.80;;
817;SDS011;391;51.052;6.954;2023-08-24T11:38:23;3.73;;;3.40;;
817;SDS011;391;51.052;6.954;2023-08-24T11:40:25;5.63;;;4.50;;
817;SDS011;391;51.052;6.954;2023-08-24T11:42:35;3.87;;;3.50;;
817;SDS011;391;51.052;6.954;2023-08-24T11:44:45;4.27;;;3.83;;
817;SDS011;391;51.052;6.954;2023-08-24T11:46:49;7.63;;;4.07;;
817;SDS011;391;51.052;6.954;2023-08-24T11:48:53;4.47;;;4.07;;
817;SDS011;391;51.052;6.954;2023-08-24T11:50:57;3.50;;;3.20;;
817;SDS011;391;51.052;6.954;2023-08-24T11:53:01;4.20;;;2.70;;
817;SDS011;391;51.052;6.954;2023-08-24T11:55:05;3.53;;;3.23;;
817;SDS011;391;51.052;6.954;2023-08-24T11:57:10;4.37;;;3.87;;
817;SDS011;391;51.052;6.954;2023-08-24T11:59:14;5.43;;;2.83;;
817;SDS011;391;51.052;6.954;2023-08-24T12:01:19;6.47;;;4.20;;
817;SDS011;391;51.052;6.954;2023-08-24T12:03:23;4.33;;;3.20;;
817;SDS011;391;51.052;6.954;2023-08-24T12:05:27;7.40;;;3.83;;
817;SDS011;391;51.052;6.954;2023-08-24T12:07:31;4.83;;;3.27;;
817;SDS011;391;51.052;6.954;2023-08-24T12:09:37;5.00;;;3.47;;
817;SDS011;391;51.052;6.954;2023-08-24T12:11:40;6.20;;;3.93;;
817;SDS011;391;51.052;6.954;2023-08-24T12:13:44;3.57;;;3.27;;
817;SDS011;391;51.052;6.954;2023-08-24T12:15:48;6.10;;;3.90;;
817;SDS011;391;51.052;6.954;2023-08-24T12:17:53;6.93;;;3.90;;
817;SDS011;391;51.052;6.954;2023-08-24T12:19:57;4.40;;;3.57;;
817;SDS011;391;51.052;6.954;2023-08-24T12:22:02;6.00;;;3.83;;
817;SDS011;391;51.052;6.954;2023-08-24T12:24:06;6.40;;;3.87;;
817;SDS011;391;51.052;6.954;2023-08-24T12:26:18;4.50;;;4.07;;
817;SDS011;391;51.052;6.954;2023-08-24T12:28:22;4.47;;;4.17;;
817;SDS011;391;51.052;6.954;2023-08-24T12:30:25;4.03;;;3.70;;
817;SDS011;391;51.052;6.954;2023-08-24T12:32:41;4.83;;;4.43;;
817;SDS011;391;51.052;6.954;2023-08-24T12:34:45;8.47;;;4.53;;
817;SDS011;391;51.052;6.954;2023-08-24T12:36:48;5.00;;;4.13;;
817;SDS011;391;51.052;6.954;2023-08-24T12:38:56;4.63;;;4.00;;
817;SDS011;391;51.052;6.954;2023-08-24T12:41:02;4.70;;;3.97;;
817;SDS011;391;51.052;6.954;2023-08-24T12:43:07;4.50;;;4.17;;
817;SDS011;391;51.052;6.954;2023-08-24T12:45:10;7.50;;;4.27;;
817;SDS011;391;51.052;6.954;2023-08-24T12:47:15;4.90;;;4.50;;
817;SDS011;391;51.052;6.954;2023-08-24T12:49:19;5.83;;;4.97;;
817;SDS011;391;51.052;6.954;2023-08-24T12:51:22;7.00;;;4.67;;
817;SDS011;391;51.052;6.954;2023-08-24T12:53:27;5.23;;;4.23;;
817;SDS011;391;51.052;6.954;2023-08-24T12:55:30;4.73;;;4.33;;
817;SDS011;391;51.052;6.954;2023-08-24T12:57:33;9.90;;;5.10;;
817;SDS011;391;51.052;6.954;2023-08-24T12:59:38;5.20;;;4.77;;
817;SDS011;391;51.052;6.954;2023-08-24T13:01:42;6.67;;;5.77;;
817;SDS011;391;51.052;6.954;2023-08-24T13:03:45;6.20;;;5.60;;
817;SDS011;391;51.052;6.954;2023-08-24T13:05:48;8.13;;;6.50;;
817;SDS011;391;51.052;6.954;2023-08-24T13:07:52;7.80;;;4.60;;
817;SDS011;391;51.052;6.954;2023-08-24T13:09:54;4.53;;;4.23;;
817;SDS011;391;51.052;6.954;2023-08-24T13:11:59;5.60;;;5.10;;
817;SDS011;391;51.052;6.954;2023-08-24T13:14:03;5.57;;;4.80;;
817;SDS011;391;51.052;6.954;2023-08-24T13:16:08;7.70;;;4.90;;
817;SDS011;391;51.052;6.954;2023-08-24T13:18:11;8.23;;;4.43;;
817;SDS011;391;51.052;6.954;2023-08-24T13:20:15;6.10;;;4.93;;
817;SDS011;391;51.052;6.954;2023-08-24T13:22:19;6.20;;;5.00;;